Time;durP1;ratioP1;P1;durP2;ratioP2;P2;SDS_P1;SDS_P2;PMS_P1;PMS_P2;Temp;Humidity;BMP_temperature;BMP_pressure;BME280_temperature;BME280_humidity;BME280_pressure;Samples;Min_cycle;Max_cycle;Signal;HPM_P1;HPM_P2
2023/07/06 00:00:49;;;;;;;;;;;13.20;77.30;;;;;;4049918;29;20300;-81
2023/07/06 00:03:08;;;;;;;;;;;13.20;77.60;;;;;;4048984;29;19923;-82
2023/07/06 00:05:27;;;;;;;;;;;13.20;77.30;;;;;;4038974;29;19939;-81
2023/07/06 00:07:46;;;;;;;;;;;13.20;77.00;;;;;;4050607;29;19926;-81
2023/07/06 00:10:06;;;;;;;;;;;13.20;77.00;;;;;;4050421;29;19931;-83
2023/07/06 00:12:25;;;;;;;;;;;13.10;76.80;;;;;;4052825;29;19961;-82
2023/07/06 00:14:44;;;;;;;;;;;13.10;76.60;;;;;;4049455;29;19939;-80
2023/07/06 00:17:08;;;;;;;;;;;13.10;76.60;;;;;;4050396;29;19927;-83
2023/07/06 00:19:27;;;;;;;;;;;13.00;76.60;;;;;;4048237;29;20009;-81
2023/07/06 00:21:49;;;;;;;;;;;13.10;76.60;;;;;;4048261;29;19998;-81
2023/07/06 00:24:08;;;;;;;;;;;13.10;76.70;;;;;;4036451;29;19931;-81
2023/07/06 00:26:27;;;;;;;;;;;13.00;77.10;;;;;;4050648;29;19943;-81
2023/07/06 00:28:49;;;;;;;;;;;12.90;77.30;;;;;;4036056;29;19991;-80
2023/07/06 00:31:10;;;;;;;;;;;12.90;77.10;;;;;;4046731;29;20022;-83
2023/07/06 00:33:30;;;;;;;;;;;12.90;77.30;;;;;;4047838;29;19967;-82
2023/07/06 00:35:49;;;;;;;;;;;12.90;77.60;;;;;;4041921;29;19919;-81
2023/07/06 00:38:12;;;;;;;;;;;12.90;78.30;;;;;;4052698;29;19979;-81
2023/07/06 00:40:31;;;;;;;;;;;12.90;77.80;;;;;;4038607;29;19991;-81
2023/07/06 00:42:50;;;;;;;;;;;12.90;77.60;;;;;;4048168;29;19964;-82
2023/07/06 00:45:10;;;;;;;;;;;12.90;78.00;;;;;;4037768;29;20065;-82
2023/07/06 00:47:47;;;;;;;;;;;12.90;78.00;;;;;;4037314;29;19959;-81
2023/07/06 00:50:11;;;;;;;;;;;12.90;78.00;;;;;;4051446;29;19943;-81
2023/07/06 00:52:30;;;;;;;;;;;12.80;77.90;;;;;;4053730;29;19926;-82
2023/07/06 00:54:49;;;;;;;;;;;12.90;77.80;;;;;;4042363;29;19931;-81
2023/07/06 00:57:11;;;;;;;;;;;12.90;78.00;;;;;;4049638;29;20183;-81
2023/07/06 00:59:32;;;;;;;;;;;12.90;78.30;;;;;;4052780;29;19926;-81
2023/07/06 01:01:51;;;;;;;;;;;12.90;78.60;;;;;;4037085;29;19922;-81
2023/07/06 01:04:12;;;;;;;;;;;12.90;78.70;;;;;;4050359;29;20536;-81
2023/07/06 01:06:34;;;;;;;;;;;12.90;78.20;;;;;;4046275;29;19926;-83
2023/07/06 01:08:54;;;;;;;;;;;12.90;77.90;;;;;;4052282;29;20366;-82
2023/07/06 01:11:14;;;;;;;;;;;12.90;77.90;;;;;;4034138;29;19958;-80
2023/07/06 01:13:33;;;;;;;;;;;12.90;78.10;;;;;;4052582;29;19931;-80
2023/07/06 01:16:02;;;;;;;;;;;12.90;77.80;;;;;;4049416;29;19972;-80
2023/07/06 01:18:27;;;;;;;;;;;12.90;78.70;;;;;;4049474;29;20365;-82
2023/07/06 01:21:09;;;;;;;;;;;12.80;78.40;;;;;;4049474;29;19938;-82
2023/07/06 01:23:43;;;;;;;;;;;12.80;77.90;;;;;;4048896;29;19974;-81
2023/07/06 01:26:15;;;;;;;;;;;12.80;77.40;;;;;;4049207;29;19976;-81
2023/07/06 01:28:53;;;;;;;;;;;12.80;77.60;;;;;;4050737;29;19925;-79
2023/07/06 01:31:26;;;;;;;;;;;12.80;77.60;;;;;;4047035;29;19926;-80
2023/07/06 01:33:52;;;;;;;;;;;12.80;77.60;;;;;;4036004;29;19925;-80
2023/07/06 01:36:17;;;;;;;;;;;12.80;77.60;;;;;;4051523;29;20517;-82
2023/07/06 01:38:37;;;;;;;;;;;12.80;77.80;;;;;;4051439;29;20431;-81
2023/07/06 01:40:57;;;;;;;;;;;12.70;77.60;;;;;;4037926;29;20304;-81
2023/07/06 01:43:16;;;;;;;;;;;12.70;77.80;;;;;;4050002;29;19926;-81
2023/07/06 01:45:36;;;;;;;;;;;12.70;77.80;;;;;;4034577;29;20347;-82
2023/07/06 01:47:57;;;;;;;;;;;12.70;77.70;;;;;;4049677;29;20325;-80
2023/07/06 01:50:19;;;;;;;;;;;12.60;77.70;;;;;;4038083;29;19922;-82
2023/07/06 01:52:56;;;;;;;;;;;12.70;78.30;;;;;;4053432;29;19939;-81
2023/07/06 01:55:22;;;;;;;;;;;12.60;77.70;;;;;;4048580;29;19927;-81
2023/07/06 01:57:50;;;;;;;;;;;12.60;77.50;;;;;;4051943;29;19973;-80
2023/07/06 02:00:14;;;;;;;;;;;12.60;77.60;;;;;;4034388;29;19927;-81
2023/07/06 02:02:33;;;;;;;;;;;12.50;78.30;;;;;;4052410;29;19922;-80
2023/07/06 02:04:55;;;;;;;;;;;12.60;78.20;;;;;;4049459;29;19999;-80
2023/07/06 02:07:16;;;;;;;;;;;12.50;78.00;;;;;;4052022;29;19969;-81
2023/07/06 02:09:42;;;;;;;;;;;12.50;77.10;;;;;;4052809;29;19926;-81
2023/07/06 02:12:03;;;;;;;;;;;12.50;77.20;;;;;;4053361;29;19978;-81
2023/07/06 02:14:22;;;;;;;;;;;12.50;77.20;;;;;;4050215;29;19927;-81
2023/07/06 02:16:41;;;;;;;;;;;12.50;77.10;;;;;;4049616;29;19996;-80
2023/07/06 02:19:02;;;;;;;;;;;12.40;77.30;;;;;;4050240;29;19967;-81
2023/07/06 02:21:21;;;;;;;;;;;12.40;77.20;;;;;;4035579;29;19966;-81
2023/07/06 02:23:41;;;;;;;;;;;12.40;77.10;;;;;;4050433;29;20436;-82
2023/07/06 02:26:01;;;;;;;;;;;12.40;78.10;;;;;;4038479;29;20422;-81
2023/07/06 02:28:21;;;;;;;;;;;12.40;77.30;;;;;;4051625;29;19940;-82
2023/07/06 02:30:40;;;;;;;;;;;12.40;77.20;;;;;;4051735;29;19958;-81
2023/07/06 02:32:59;;;;;;;;;;;12.40;77.10;;;;;;4050619;29;20074;-81
2023/07/06 02:35:19;;;;;;;;;;;12.30;77.10;;;;;;4051556;29;19930;-83
2023/07/06 02:37:38;;;;;;;;;;;12.30;77.20;;;;;;4054212;29;19970;-81
2023/07/06 02:39:58;;;;;;;;;;;12.20;76.90;;;;;;4052450;29;19925;-81
2023/07/06 02:42:18;;;;;;;;;;;12.30;77.10;;;;;;4039518;29;20011;-82
2023/07/06 02:44:38;;;;;;;;;;;12.30;77.10;;;;;;4052649;29;20415;-81
2023/07/06 02:46:57;;;;;;;;;;;12.20;77.20;;;;;;4050138;29;19922;-82
2023/07/06 02:49:17;;;;;;;;;;;12.20;77.20;;;;;;4049479;29;19922;-81
2023/07/06 02:51:36;;;;;;;;;;;12.20;77.00;;;;;;4037926;29;19931;-81
2023/07/06 02:53:56;;;;;;;;;;;12.20;77.10;;;;;;4051232;29;19926;-80
2023/07/06 02:56:16;;;;;;;;;;;12.20;78.00;;;;;;4050163;29;20002;-81
2023/07/06 02:58:35;;;;;;;;;;;12.30;77.30;;;;;;4051893;29;19934;-81
2023/07/06 03:00:55;;;;;;;;;;;12.20;77.30;;;;;;4049581;29;19940;-83
2023/07/06 03:03:14;;;;;;;;;;;12.20;77.20;;;;;;4052249;29;19946;-82
2023/07/06 03:05:35;;;;;;;;;;;12.10;77.30;;;;;;4054063;29;19926;-81
2023/07/06 03:07:54;;;;;;;;;;;12.20;77.30;;;;;;4033857;29;19934;-82
2023/07/06 03:10:17;;;;;;;;;;;12.30;77.40;;;;;;4037774;29;19971;-82
2023/07/06 03:12:39;;;;;;;;;;;12.20;77.50;;;;;;4050321;29;19927;-81
2023/07/06 03:14:58;;;;;;;;;;;12.20;77.20;;;;;;4034735;29;19934;-81
2023/07/06 03:17:17;;;;;;;;;;;12.30;77.40;;;;;;4054108;29;19939;-81
2023/07/06 03:19:38;;;;;;;;;;;12.20;77.30;;;;;;4049406;29;20259;-82
2023/07/06 03:21:58;;;;;;;;;;;12.20;77.30;;;;;;4052147;29;19975;-82
2023/07/06 03:24:18;;;;;;;;;;;12.20;77.10;;;;;;4055619;29;19943;-81
2023/07/06 03:26:40;;;;;;;;;;;12.20;77.30;;;;;;4051384;29;20470;-82
2023/07/06 03:29:06;;;;;;;;;;;12.20;77.30;;;;;;4051081;29;19926;-81
2023/07/06 03:31:26;;;;;;;;;;;12.20;78.00;;;;;;4049623;29;19962;-80
2023/07/06 03:33:45;;;;;;;;;;;12.30;78.00;;;;;;4048870;29;19935;-81
2023/07/06 03:36:04;;;;;;;;;;;12.20;77.20;;;;;;4051649;29;19934;-81
2023/07/06 03:38:25;;;;;;;;;;;12.20;77.10;;;;;;4051355;29;19967;-80
2023/07/06 03:40:47;;;;;;;;;;;12.20;77.90;;;;;;4047008;29;20015;-82
2023/07/06 03:43:06;;;;;;;;;;;12.20;77.90;;;;;;4049849;29;19925;-82
2023/07/06 03:45:25;;;;;;;;;;;12.20;77.30;;;;;;4046547;29;20387;-80
2023/07/06 03:47:49;;;;;;;;;;;12.20;77.40;;;;;;4049831;29;19937;-81
2023/07/06 03:50:09;;;;;;;;;;;12.20;77.40;;;;;;4048849;29;20673;-81
2023/07/06 03:52:28;;;;;;;;;;;12.30;77.50;;;;;;4050037;29;19990;-80
2023/07/06 03:54:47;;;;;;;;;;;12.30;77.50;;;;;;4033342;29;19975;-81
2023/07/06 03:57:07;;;;;;;;;;;12.30;77.70;;;;;;4051740;29;20377;-81
2023/07/06 03:59:31;;;;;;;;;;;12.30;77.90;;;;;;4048638;29;20299;-80
2023/07/06 04:01:50;;;;;;;;;;;12.30;77.80;;;;;;4048648;29;19948;-81
2023/07/06 04:04:10;;;;;;;;;;;12.30;78.60;;;;;;4032552;29;19923;-81
2023/07/06 04:06:29;;;;;;;;;;;12.30;78.00;;;;;;4048371;29;19927;-80
2023/07/06 04:08:48;;;;;;;;;;;12.40;78.90;;;;;;4050311;29;19966;-79
2023/07/06 04:11:08;;;;;;;;;;;12.40;78.10;;;;;;4048533;29;20218;-81
2023/07/06 04:13:29;;;;;;;;;;;12.40;78.00;;;;;;4048964;29;19934;-80
2023/07/06 04:15:49;;;;;;;;;;;12.50;78.00;;;;;;4040181;29;19967;-80
2023/07/06 04:18:08;;;;;;;;;;;12.50;78.30;;;;;;4047664;29;19934;-80
2023/07/06 04:20:28;;;;;;;;;;;12.60;78.50;;;;;;4047066;29;19925;-79
2023/07/06 04:22:48;;;;;;;;;;;12.60;78.60;;;;;;4048130;29;19948;-80
2023/07/06 04:25:07;;;;;;;;;;;12.60;78.70;;;;;;4049180;29;20027;-79
2023/07/06 04:27:26;;;;;;;;;;;12.70;78.60;;;;;;4032815;29;20014;-80
2023/07/06 04:29:45;;;;;;;;;;;12.80;78.50;;;;;;4035711;29;19930;-80
2023/07/06 04:32:05;;;;;;;;;;;12.70;78.20;;;;;;4050275;29;20431;-80
2023/07/06 04:34:24;;;;;;;;;;;12.80;78.00;;;;;;4034201;29;19923;-79
2023/07/06 04:36:45;;;;;;;;;;;12.90;78.00;;;;;;4044770;29;20601;-81
2023/07/06 04:39:07;;;;;;;;;;;12.90;77.80;;;;;;4049372;29;20024;-81
2023/07/06 04:41:27;;;;;;;;;;;12.80;77.80;;;;;;4049394;29;19922;-80
2023/07/06 04:43:46;;;;;;;;;;;12.80;77.80;;;;;;4046840;29;19927;-82
2023/07/06 04:46:05;;;;;;;;;;;12.90;77.80;;;;;;4042431;29;19929;-79
2023/07/06 04:48:24;;;;;;;;;;;12.80;77.70;;;;;;4045384;29;20115;-80
2023/07/06 04:50:43;;;;;;;;;;;12.90;77.70;;;;;;4049392;29;20427;-80
2023/07/06 04:53:07;;;;;;;;;;;13.00;77.70;;;;;;4046350;29;19931;-81
2023/07/06 05:07:50;;;;;;;;;;;13.00;78.60;;;;;;3980081;29;19928;-80
2023/07/06 05:10:09;;;;;;;;;;;13.20;78.80;;;;;;3992321;29;19933;-80
2023/07/06 05:13:11;;;;;;;;;;;13.20;79.20;;;;;;4027302;29;20300;-81
2023/07/06 05:15:31;;;;;;;;;;;13.20;79.50;;;;;;4038554;29;19948;-81
2023/07/06 05:17:50;;;;;;;;;;;13.40;80.60;;;;;;4048346;29;20712;-83
2023/07/06 05:20:16;;;;;;;;;;;13.50;79.90;;;;;;4048688;29;19974;-83
2023/07/06 05:22:39;;;;;;;;;;;13.50;80.40;;;;;;4032822;29;19923;-83
2023/07/06 05:24:58;;;;;;;;;;;13.70;80.50;;;;;;4048926;29;20003;-83
2023/07/06 05:27:24;;;;;;;;;;;13.70;80.30;;;;;;4035409;29;20031;-82
2023/07/06 05:29:43;;;;;;;;;;;13.90;80.70;;;;;;4050344;29;19926;-82
2023/07/06 05:32:02;;;;;;;;;;;13.90;80.30;;;;;;4033392;29;20415;-80
2023/07/06 05:34:22;;;;;;;;;;;14.00;80.30;;;;;;4049544;29;19958;-83
2023/07/06 05:36:41;;;;;;;;;;;14.20;80.20;;;;;;4033604;29;19923;-83
2023/07/06 05:39:00;;;;;;;;;;;14.20;80.60;;;;;;4050145;29;19967;-82
2023/07/06 05:41:19;;;;;;;;;;;14.40;80.00;;;;;;4049661;29;20001;-81
2023/07/06 05:43:38;;;;;;;;;;;14.50;80.00;;;;;;4044878;29;19931;-80
2023/07/06 05:45:58;;;;;;;;;;;14.60;80.00;;;;;;4044199;29;19953;-80
2023/07/06 05:48:18;;;;;;;;;;;14.70;79.90;;;;;;4033816;29;20074;-81
2023/07/06 05:50:38;;;;;;;;;;;14.70;79.40;;;;;;4048758;29;19929;-81
2023/07/06 05:52:58;;;;;;;;;;;14.80;79.10;;;;;;4048365;29;19995;-84
2023/07/06 05:55:17;;;;;;;;;;;15.00;78.20;;;;;;4047901;29;20427;-81
2023/07/06 05:57:36;;;;;;;;;;;15.00;78.10;;;;;;4048147;29;19963;-81
2023/07/06 05:59:55;;;;;;;;;;;15.10;77.70;;;;;;4047740;29;19930;-81
2023/07/06 06:02:16;;;;;;;;;;;15.10;77.10;;;;;;4049414;29;20023;-80
2023/07/06 06:04:37;;;;;;;;;;;15.30;76.60;;;;;;4048589;29;19931;-80
2023/07/06 06:06:57;;;;;;;;;;;15.30;76.30;;;;;;4033520;29;20392;-80
2023/07/06 06:09:16;;;;;;;;;;;15.40;76.30;;;;;;4049641;29;20006;-81
2023/07/06 06:11:35;;;;;;;;;;;15.40;75.90;;;;;;4047748;29;19930;-80
2023/07/06 06:13:55;;;;;;;;;;;15.40;76.20;;;;;;4047626;29;20026;-81
2023/07/06 06:16:16;;;;;;;;;;;15.50;75.20;;;;;;4048165;29;20069;-79
2023/07/06 06:18:35;;;;;;;;;;;15.50;74.90;;;;;;4051085;29;19976;-80
2023/07/06 06:20:55;;;;;;;;;;;15.60;73.90;;;;;;4049400;29;19923;-81
2023/07/06 06:23:15;;;;;;;;;;;15.50;73.50;;;;;;4049706;29;20064;-81
2023/07/06 06:25:38;;;;;;;;;;;15.50;73.20;;;;;;4047618;29;20332;-81
2023/07/06 06:27:57;;;;;;;;;;;15.50;72.90;;;;;;4046590;29;19930;-81
2023/07/06 06:30:16;;;;;;;;;;;15.50;72.00;;;;;;4048362;29;19953;-82
2023/07/06 06:32:35;;;;;;;;;;;15.50;72.00;;;;;;4030133;29;19968;-81
2023/07/06 06:34:54;;;;;;;;;;;15.40;71.60;;;;;;4037061;29;19931;-81
2023/07/06 06:37:16;;;;;;;;;;;15.40;71.80;;;;;;4052424;29;19926;-81
2023/07/06 06:39:38;;;;;;;;;;;15.40;72.00;;;;;;4046031;29;20416;-80
2023/07/06 06:41:58;;;;;;;;;;;15.40;72.50;;;;;;4046735;29;19980;-83
2023/07/06 06:44:18;;;;;;;;;;;15.40;72.60;;;;;;4047599;29;20674;-81
2023/07/06 06:46:37;;;;;;;;;;;15.50;72.90;;;;;;4049091;29;19934;-82
2023/07/06 06:48:57;;;;;;;;;;;15.40;73.00;;;;;;4046477;29;19931;-82
2023/07/06 06:51:16;;;;;;;;;;;15.40;73.20;;;;;;4050018;29;20015;-82
2023/07/06 06:53:39;;;;;;;;;;;15.50;73.50;;;;;;4051920;29;20459;-81
2023/07/06 06:55:59;;;;;;;;;;;15.60;74.10;;;;;;4048485;29;19959;-82
2023/07/06 06:58:20;;;;;;;;;;;15.60;74.50;;;;;;4048837;29;19971;-81
2023/07/06 07:00:40;;;;;;;;;;;15.80;75.70;;;;;;4049303;29;19951;-81
2023/07/06 07:02:59;;;;;;;;;;;15.80;75.00;;;;;;4046403;29;19947;-82
2023/07/06 07:05:19;;;;;;;;;;;15.90;75.60;;;;;;4046951;29;19979;-81
2023/07/06 07:07:38;;;;;;;;;;;16.00;74.50;;;;;;4045682;29;19929;-82
2023/07/06 07:09:58;;;;;;;;;;;16.10;73.70;;;;;;4049898;29;19948;-82
2023/07/06 07:12:18;;;;;;;;;;;16.10;73.60;;;;;;4052850;29;20495;-81
2023/07/06 07:14:40;;;;;;;;;;;16.20;72.70;;;;;;4048882;29;20333;-82
2023/07/06 07:17:01;;;;;;;;;;;16.20;71.80;;;;;;4048110;29;19938;-82
2023/07/06 07:19:21;;;;;;;;;;;16.20;71.20;;;;;;4047779;29;19966;-81
2023/07/06 07:21:40;;;;;;;;;;;16.30;72.00;;;;;;4049949;29;19979;-83
2023/07/06 07:24:00;;;;;;;;;;;16.30;71.60;;;;;;4050443;29;19930;-81
2023/07/06 07:26:21;;;;;;;;;;;16.40;71.40;;;;;;4030699;29;19930;-82
2023/07/06 07:28:41;;;;;;;;;;;16.50;70.70;;;;;;4051461;29;19975;-80
2023/07/06 07:31:01;;;;;;;;;;;16.60;70.60;;;;;;4050165;29;19957;-82
2023/07/06 07:33:20;;;;;;;;;;;16.60;70.40;;;;;;4049866;29;19958;-82
2023/07/06 07:35:41;;;;;;;;;;;16.60;69.80;;;;;;4033827;29;19943;-81
2023/07/06 07:38:01;;;;;;;;;;;16.70;67.70;;;;;;4049784;29;19926;-82
2023/07/06 07:40:22;;;;;;;;;;;16.70;66.70;;;;;;4047357;29;20018;-82
2023/07/06 07:42:46;;;;;;;;;;;16.70;66.90;;;;;;4045379;29;20630;-83
2023/07/06 07:45:07;;;;;;;;;;;16.80;66.40;;;;;;4033143;29;19936;-82
2023/07/06 07:47:27;;;;;;;;;;;16.80;65.70;;;;;;4049759;29;19979;-83
2023/07/06 07:49:46;;;;;;;;;;;16.80;65.50;;;;;;4052966;29;20007;-82
2023/07/06 07:52:06;;;;;;;;;;;16.90;65.50;;;;;;4033054;29;19923;-82
2023/07/06 07:54:26;;;;;;;;;;;16.90;66.30;;;;;;4052256;29;19922;-82
2023/07/06 07:56:47;;;;;;;;;;;16.90;66.00;;;;;;4038251;29;19923;-82
2023/07/06 07:59:06;;;;;;;;;;;17.00;66.30;;;;;;4052431;29;19923;-82
2023/07/06 08:01:25;;;;;;;;;;;17.00;65.20;;;;;;4055851;29;19929;-82
2023/07/06 08:03:45;;;;;;;;;;;17.10;65.70;;;;;;4054256;29;20258;-83
2023/07/06 08:06:05;;;;;;;;;;;17.10;63.70;;;;;;4055557;29;19934;-83
2023/07/06 08:08:25;;;;;;;;;;;17.10;61.80;;;;;;4037477;29;19960;-82
2023/07/06 08:10:45;;;;;;;;;;;17.20;63.90;;;;;;4053498;29;19922;-82
2023/07/06 08:13:06;;;;;;;;;;;17.10;62.30;;;;;;4051889;29;19926;-83
2023/07/06 08:15:25;;;;;;;;;;;17.20;62.10;;;;;;4052682;29;19926;-80
2023/07/06 08:17:44;;;;;;;;;;;17.30;62.90;;;;;;4052980;29;19987;-82
2023/07/06 08:20:10;;;;;;;;;;;17.30;62.20;;;;;;4054052;29;19993;-82
2023/07/06 08:22:29;;;;;;;;;;;17.20;62.10;;;;;;4051896;29;20340;-82
2023/07/06 08:24:49;;;;;;;;;;;17.30;60.90;;;;;;4049056;29;19925;-83
2023/07/06 08:27:09;;;;;;;;;;;17.30;61.30;;;;;;4050763;29;19970;-81
2023/07/06 08:29:31;;;;;;;;;;;17.40;61.70;;;;;;4055137;29;20010;-82
2023/07/06 08:31:50;;;;;;;;;;;17.40;61.40;;;;;;4034087;29;19926;-81
2023/07/06 08:34:12;;;;;;;;;;;17.50;62.40;;;;;;4048377;29;19974;-82
2023/07/06 08:36:31;;;;;;;;;;;17.60;62.10;;;;;;4053140;29;20010;-81
2023/07/06 08:38:50;;;;;;;;;;;17.70;62.30;;;;;;4052614;29;19930;-82
2023/07/06 08:41:12;;;;;;;;;;;17.80;60.90;;;;;;4051454;29;19922;-82
2023/07/06 08:43:32;;;;;;;;;;;17.80;61.30;;;;;;4051884;29;20703;-82
2023/07/06 08:45:55;;;;;;;;;;;18.00;62.30;;;;;;4036879;29;20010;-81
2023/07/06 08:48:15;;;;;;;;;;;18.10;61.80;;;;;;4036714;29;20013;-81
2023/07/06 08:50:36;;;;;;;;;;;18.10;61.80;;;;;;4054568;29;19922;-81
2023/07/06 08:52:56;;;;;;;;;;;18.10;61.00;;;;;;4054922;29;20387;-80
2023/07/06 08:55:16;;;;;;;;;;;18.20;60.00;;;;;;4041498;29;19927;-81
2023/07/06 08:57:35;;;;;;;;;;;18.20;60.70;;;;;;4052033;29;19923;-82
2023/07/06 08:59:54;;;;;;;;;;;18.20;58.80;;;;;;4032807;29;19964;-81
2023/07/06 09:02:27;;;;;;;;;;;18.30;58.60;;;;;;4045101;29;19926;-85
2023/07/06 09:04:47;;;;;;;;;;;18.20;59.30;;;;;;4049912;29;19965;-81
2023/07/06 09:07:12;;;;;;;;;;;18.20;59.40;;;;;;4039455;29;20591;-82
2023/07/06 09:09:34;;;;;;;;;;;18.30;58.90;;;;;;4048370;29;19961;-81
2023/07/06 09:11:57;;;;;;;;;;;18.20;58.70;;;;;;4049169;29;19967;-81
2023/07/06 09:14:18;;;;;;;;;;;18.30;59.00;;;;;;4041588;29;20320;-81
2023/07/06 09:16:45;;;;;;;;;;;18.30;58.00;;;;;;4046679;29;20390;-81
2023/07/06 09:19:09;;;;;;;;;;;18.20;57.00;;;;;;4051248;29;19958;-81
2023/07/06 09:21:30;;;;;;;;;;;18.20;57.80;;;;;;4053185;29;19926;-81
2023/07/06 09:23:49;;;;;;;;;;;18.20;57.50;;;;;;4034578;29;19986;-81
2023/07/06 09:26:15;;;;;;;;;;;18.20;56.60;;;;;;4050552;29;19926;-83
2023/07/06 09:28:35;;;;;;;;;;;18.20;56.20;;;;;;4047672;29;20410;-82
2023/07/06 09:31:13;;;;;;;;;;;18.20;57.10;;;;;;4051718;29;20387;-81
2023/07/06 09:33:32;;;;;;;;;;;18.30;57.90;;;;;;4048896;29;20307;-80
2023/07/06 09:35:53;;;;;;;;;;;18.40;58.20;;;;;;4050488;29;20458;-81
2023/07/06 09:38:13;;;;;;;;;;;18.50;57.00;;;;;;4049133;29;20386;-83
2023/07/06 09:40:33;;;;;;;;;;;18.50;57.00;;;;;;4033047;29;19944;-81
2023/07/06 09:42:52;;;;;;;;;;;18.60;56.40;;;;;;4050165;29;19966;-81
2023/07/06 09:45:20;;;;;;;;;;;18.60;57.00;;;;;;4048032;29;19935;-82
2023/07/06 09:47:45;;;;;;;;;;;18.60;57.00;;;;;;4049063;29;19923;-81
2023/07/06 09:50:18;;;;;;;;;;;18.70;57.10;;;;;;4048762;29;19963;-82
2023/07/06 09:52:37;;;;;;;;;;;18.70;56.50;;;;;;4053996;29;19918;-81
2023/07/06 09:55:02;;;;;;;;;;;18.70;56.30;;;;;;4049757;29;19944;-82
2023/07/06 09:57:24;;;;;;;;;;;18.70;56.00;;;;;;4033494;29;20033;-81
2023/07/06 09:59:45;;;;;;;;;;;18.80;55.80;;;;;;4050584;29;19927;-85
2023/07/06 10:02:15;;;;;;;;;;;18.80;55.70;;;;;;4035015;29;20133;-82
2023/07/06 10:04:49;;;;;;;;;;;18.80;55.60;;;;;;4049875;29;19934;-81
2023/07/06 10:07:15;;;;;;;;;;;18.80;55.70;;;;;;4048800;29;19975;-82
2023/07/06 10:09:35;;;;;;;;;;;18.90;55.70;;;;;;4047730;29;19926;-83
2023/07/06 10:11:56;;;;;;;;;;;18.90;56.00;;;;;;4049933;29;19930;-82
2023/07/06 10:14:20;;;;;;;;;;;19.00;54.70;;;;;;4052090;29;19922;-82
2023/07/06 10:16:48;;;;;;;;;;;19.00;54.10;;;;;;4047488;29;20420;-80
2023/07/06 10:19:07;;;;;;;;;;;18.90;55.10;;;;;;4052066;29;19999;-81
2023/07/06 10:21:36;;;;;;;;;;;18.90;53.60;;;;;;4049043;29;19926;-81
2023/07/06 10:24:08;;;;;;;;;;;18.90;55.20;;;;;;4050597;29;20402;-81
2023/07/06 10:26:29;;;;;;;;;;;18.90;56.10;;;;;;4048125;29;19931;-81
2023/07/06 10:28:53;;;;;;;;;;;19.00;55.70;;;;;;4049465;29;20564;-81
2023/07/06 10:31:16;;;;;;;;;;;19.00;55.80;;;;;;4048631;29;20015;-81
2023/07/06 10:33:57;;;;;;;;;;;19.00;56.00;;;;;;4033826;29;20004;-81
2023/07/06 10:36:16;;;;;;;;;;;19.00;55.90;;;;;;4051322;29;19926;-82
2023/07/06 10:38:36;;;;;;;;;;;19.00;56.30;;;;;;4037464;29;19992;-82
2023/07/06 10:41:09;;;;;;;;;;;19.10;55.80;;;;;;4032052;29;20726;-82
2023/07/06 10:43:28;;;;;;;;;;;19.10;55.70;;;;;;4045317;29;19951;-82
2023/07/06 10:45:48;;;;;;;;;;;19.10;55.20;;;;;;4032563;29;19971;-82
2023/07/06 10:48:34;;;;;;;;;;;19.10;54.70;;;;;;4050880;29;19932;-82
2023/07/06 10:51:12;;;;;;;;;;;19.00;55.30;;;;;;4050712;29;19922;-81
2023/07/06 10:53:34;;;;;;;;;;;19.10;54.80;;;;;;4050028;29;19919;-81
2023/07/06 10:56:02;;;;;;;;;;;19.10;55.10;;;;;;4048435;29;19975;-83
2023/07/06 10:58:24;;;;;;;;;;;19.10;54.90;;;;;;4045597;29;19938;-81
2023/07/06 11:00:44;;;;;;;;;;;19.10;54.70;;;;;;4050742;29;19974;-81
2023/07/06 11:03:04;;;;;;;;;;;19.10;53.00;;;;;;4050859;29;19969;-83
2023/07/06 11:05:32;;;;;;;;;;;19.00;52.40;;;;;;4050274;29;19931;-82
2023/07/06 11:07:52;;;;;;;;;;;19.00;52.60;;;;;;4036325;29;20515;-80
2023/07/06 11:10:14;;;;;;;;;;;18.90;53.70;;;;;;4049917;29;19922;-84
2023/07/06 11:12:49;;;;;;;;;;;18.90;54.00;;;;;;4045382;29;19947;-80
2023/07/06 11:15:21;;;;;;;;;;;18.90;53.50;;;;;;4048736;29;19930;-82
2023/07/06 11:17:48;;;;;;;;;;;18.90;53.90;;;;;;4049543;29;19919;-82
2023/07/06 11:20:16;;;;;;;;;;;18.90;54.80;;;;;;4033321;29;19956;-81
2023/07/06 11:22:36;;;;;;;;;;;18.80;55.10;;;;;;4046262;29;20115;-82
2023/07/06 11:24:59;;;;;;;;;;;18.80;54.10;;;;;;4031873;29;19934;-80
2023/07/06 11:27:36;;;;;;;;;;;18.70;54.50;;;;;;4047846;29;20407;-81
2023/07/06 11:30:15;;;;;;;;;;;18.70;54.30;;;;;;4051979;29;19954;-82
2023/07/06 11:33:06;;;;;;;;;;;18.70;54.10;;;;;;4032973;29;19983;-82
2023/07/06 11:35:25;;;;;;;;;;;18.70;54.40;;;;;;4043355;29;19943;-82
2023/07/06 11:38:00;;;;;;;;;;;18.70;54.40;;;;;;4045352;29;20018;-81
2023/07/06 11:40:32;;;;;;;;;;;18.70;54.80;;;;;;4047579;29;20337;-83
2023/07/06 11:43:09;;;;;;;;;;;18.70;54.10;;;;;;4049378;29;19931;-82
2023/07/06 11:45:32;;;;;;;;;;;18.70;53.80;;;;;;4045460;29;19943;-82
2023/07/06 11:47:59;;;;;;;;;;;18.80;53.60;;;;;;4047767;29;19970;-82
2023/07/06 11:50:18;;;;;;;;;;;18.80;51.20;;;;;;4034063;29;19950;-83
2023/07/06 11:52:45;;;;;;;;;;;18.80;51.70;;;;;;4049303;29;19972;-83
2023/07/06 12:00:52;;;;;;;;;;;19.00;52.80;;;;;;4048071;29;19926;-82
2023/07/06 12:06:13;;;;;;;;;;;19.10;52.50;;;;;;4051683;29;19994;-82
2023/07/06 12:08:36;;;;;;;;;;;19.10;51.50;;;;;;4049563;29;20068;-84
2023/07/06 12:11:00;;;;;;;;;;;19.20;51.80;;;;;;4047288;29;19934;-83
2023/07/06 12:13:19;;;;;;;;;;;19.20;51.60;;;;;;4033502;29;19971;-82
2023/07/06 12:15:38;;;;;;;;;;;19.20;51.40;;;;;;4044154;29;20020;-82
2023/07/06 12:17:58;;;;;;;;;;;19.10;50.70;;;;;;4045820;29;19934;-81
2023/07/06 12:20:17;;;;;;;;;;;19.10;52.00;;;;;;4043962;29;19935;-83
2023/07/06 12:22:49;;;;;;;;;;;19.10;50.20;;;;;;4051095;29;20000;-82
2023/07/06 12:25:16;;;;;;;;;;;19.10;50.40;;;;;;4045042;29;20047;-83
2023/07/06 12:27:35;;;;;;;;;;;19.00;50.40;;;;;;4049947;29;20209;-82
2023/07/06 12:30:06;;;;;;;;;;;19.10;51.60;;;;;;4051508;29;20007;-82
2023/07/06 12:32:28;;;;;;;;;;;19.00;51.80;;;;;;4041636;29;19927;-83
2023/07/06 12:34:49;;;;;;;;;;;19.10;51.40;;;;;;4050160;29;20050;-82
2023/07/06 12:37:09;;;;;;;;;;;19.00;52.10;;;;;;4039034;29;20299;-82
2023/07/06 12:39:31;;;;;;;;;;;19.10;51.10;;;;;;4053693;29;20116;-84
2023/07/06 12:41:51;;;;;;;;;;;19.10;51.50;;;;;;4051315;29;19934;-83
2023/07/06 12:44:17;;;;;;;;;;;19.10;51.80;;;;;;4050948;29;19922;-83
2023/07/06 12:46:36;;;;;;;;;;;19.20;51.70;;;;;;4051529;29;19926;-82
2023/07/06 12:48:55;;;;;;;;;;;19.30;52.50;;;;;;4044590;29;20411;-83
2023/07/06 12:51:21;;;;;;;;;;;19.30;52.90;;;;;;4051402;29;19926;-83
2023/07/06 12:53:40;;;;;;;;;;;19.40;51.80;;;;;;4038545;29;19931;-83
2023/07/06 12:56:04;;;;;;;;;;;19.50;52.20;;;;;;4050916;29;19929;-83
2023/07/06 12:58:35;;;;;;;;;;;19.50;52.80;;;;;;4038059;29;19952;-81
2023/07/06 13:01:10;;;;;;;;;;;19.60;50.20;;;;;;4049511;29;19948;-82
2023/07/06 13:03:29;;;;;;;;;;;19.70;50.60;;;;;;4049858;29;20207;-82
2023/07/06 13:05:55;;;;;;;;;;;19.80;49.20;;;;;;4040005;29;19974;-83
2023/07/06 13:08:14;;;;;;;;;;;19.90;49.80;;;;;;4034369;29;20066;-83
2023/07/06 13:10:36;;;;;;;;;;;19.90;49.60;;;;;;4047542;29;19926;-84
2023/07/06 13:12:56;;;;;;;;;;;19.90;48.60;;;;;;4052039;29;19923;-84
2023/07/06 13:15:18;;;;;;;;;;;20.00;48.80;;;;;;4045623;29;20442;-83
2023/07/06 13:17:37;;;;;;;;;;;20.00;49.30;;;;;;4049798;29;19930;-84
2023/07/06 13:19:56;;;;;;;;;;;20.10;48.50;;;;;;4041248;29;19923;-83
2023/07/06 13:22:15;;;;;;;;;;;20.20;49.30;;;;;;4052436;29;19948;-83
2023/07/06 13:24:40;;;;;;;;;;;20.10;49.60;;;;;;4047798;29;19926;-83
2023/07/06 13:27:01;;;;;;;;;;;20.10;49.10;;;;;;4053554;29;19929;-84
2023/07/06 13:29:21;;;;;;;;;;;20.10;48.80;;;;;;4039330;29;19948;-83
2023/07/06 13:31:43;;;;;;;;;;;20.10;49.00;;;;;;4052877;29;19971;-82
2023/07/06 13:34:02;;;;;;;;;;;20.10;49.40;;;;;;4051434;29;20026;-84
2023/07/06 13:36:21;;;;;;;;;;;20.10;47.70;;;;;;4051156;29;19926;-83
2023/07/06 13:38:40;;;;;;;;;;;20.00;46.70;;;;;;4052640;29;19971;-82
2023/07/06 13:41:00;;;;;;;;;;;20.10;48.10;;;;;;4040284;29;19980;-82
2023/07/06 13:43:21;;;;;;;;;;;20.00;49.00;;;;;;4053026;29;20100;-83
2023/07/06 13:45:40;;;;;;;;;;;20.00;49.80;;;;;;4052766;29;19929;-83
2023/07/06 13:48:00;;;;;;;;;;;20.00;48.90;;;;;;4055420;29;19927;-83
2023/07/06 13:50:24;;;;;;;;;;;20.00;48.40;;;;;;4055817;29;19922;-82
2023/07/06 13:52:43;;;;;;;;;;;20.00;48.30;;;;;;4053133;29;19931;-82
2023/07/06 13:55:02;;;;;;;;;;;20.00;48.70;;;;;;4049296;29;20080;-82
2023/07/06 13:57:23;;;;;;;;;;;20.00;48.80;;;;;;4050089;29;19975;-83
2023/07/06 13:59:42;;;;;;;;;;;19.90;49.00;;;;;;4030130;29;19935;-80
2023/07/06 14:02:02;;;;;;;;;;;20.00;49.30;;;;;;4049869;29;20074;-82
2023/07/06 14:04:21;;;;;;;;;;;20.00;48.80;;;;;;4040929;29;20006;-81
2023/07/06 14:06:40;;;;;;;;;;;19.90;47.80;;;;;;4043727;29;19930;-84